QTR8806 LIMC-KORD
Flight info
| Callsign | QTR8806 |
|---|---|
| Flight time | N/A |
| Altitude | 32000 |
| Route | AOSTA DCT ORSUD DCT MOLUS DCT IBODI DCT GOTED DCT TRO DCT CLM DCT KOPOR DCT VESAN DCT RATUK DCT SOVAT DCT OKSAW DCT TEWXI DCT VATRY DCT KOMER DCT TORLU/N0474F340 DCT DOGAL/M083F340 NATC NEEKO/N0484F360 DCT ANCER DCT OXASA DCT NOTAP DCT ODAXY WYNDE3 |
| Aircraft | B77L/H-SDE1E2E3FGHIJ2J3J4J5M1RWXY/LB1D1 |
Departure
| Time | N/A |
|---|---|
| Airport | Milan Malpensa International Airport (LIMC) |
Arrival
| Time | 2026-05-04 17:55 |
|---|---|
| Airport | Chicago O'Hare International Airport (KORD) |
| Time | Latitude | Longitude | Altitude | Speed | Heading |
|---|---|---|---|---|---|
| 2026-05-04 16:52 | 45.69140 | -81.24016 | 35607 ft | 438 kts | 246° |
| 2026-05-04 16:53 | 45.66210 | -81.31657 | 35610 ft | 438 kts | 246° |
| 2026-05-04 16:54 | 45.60325 | -81.46945 | 35610 ft | 438 kts | 246° |
| 2026-05-04 16:55 | 45.51501 | -81.69707 | 35610 ft | 437 kts | 246° |
| 2026-05-04 16:56 | 45.44118 | -81.88612 | 35600 ft | 436 kts | 246° |
| 2026-05-04 16:57 | 45.39691 | -81.99887 | 35602 ft | 437 kts | 246° |
| 2026-05-04 16:58 | 45.33769 | -82.14893 | 35587 ft | 434 kts | 246° |
| 2026-05-04 17:00 | 45.24869 | -82.37313 | 35579 ft | 434 kts | 246° |
| 2026-05-04 17:01 | 45.15539 | -82.54413 | 35564 ft | 449 kts | 229° |
| 2026-05-04 17:02 | 45.06253 | -82.66192 | 35548 ft | 449 kts | 229° |
| 2026-05-04 17:03 | 44.99274 | -82.75092 | 35545 ft | 449 kts | 229° |
| 2026-05-04 17:03 | 44.92332 | -82.83944 | 35556 ft | 450 kts | 229° |
| 2026-05-04 17:04 | 44.83040 | -82.95737 | 35553 ft | 450 kts | 229° |
| 2026-05-04 17:05 | 44.73734 | -83.07498 | 35556 ft | 450 kts | 229° |
| 2026-05-04 17:06 | 44.66745 | -83.16299 | 35563 ft | 450 kts | 229° |
| 2026-05-04 17:07 | 44.62658 | -83.22726 | 35559 ft | 433 kts | 248° |
| 2026-05-04 17:07 | 44.61873 | -83.25316 | 35566 ft | 426 kts | 255° |
| 2026-05-04 17:07 | 44.59399 | -83.34444 | 35572 ft | 432 kts | 253° |
| 2026-05-04 17:08 | 44.56066 | -83.46182 | 35566 ft | 430 kts | 253° |
| 2026-05-04 17:09 | 44.53840 | -83.53917 | 35574 ft | 430 kts | 252° |
| 2026-05-04 17:09 | 44.51583 | -83.61736 | 35574 ft | 432 kts | 252° |
| 2026-05-04 17:10 | 44.45947 | -83.81177 | 35564 ft | 431 kts | 252° |
| 2026-05-04 17:11 | 44.43696 | -83.88905 | 35575 ft | 431 kts | 252° |
| 2026-05-04 17:12 | 44.40278 | -84.00591 | 35581 ft | 432 kts | 252° |
| 2026-05-04 17:13 | 44.34583 | -84.19920 | 35589 ft | 430 kts | 252° |
| 2026-05-04 17:14 | 44.30016 | -84.35337 | 35592 ft | 431 kts | 252° |
| 2026-05-04 17:15 | 44.26560 | -84.46936 | 35585 ft | 431 kts | 252° |
| 2026-05-04 17:16 | 44.21957 | -84.62301 | 35583 ft | 429 kts | 251° |
| 2026-05-04 17:17 | 44.17337 | -84.77631 | 35583 ft | 428 kts | 251° |
| 2026-05-04 17:18 | 44.12714 | -84.92887 | 35582 ft | 428 kts | 251° |
| 2026-05-04 17:19 | 44.07066 | -85.07340 | 35590 ft | 445 kts | 226° |
| 2026-05-04 17:19 | 44.01567 | -85.11607 | 35573 ft | 467 kts | 201° |
| 2026-05-04 17:20 | 43.95166 | -85.13551 | 35592 ft | 473 kts | 198° |
| 2026-05-04 17:20 | 43.85497 | -85.16413 | 35595 ft | 474 kts | 199° |
| 2026-05-04 17:21 | 43.72659 | -85.20490 | 35603 ft | 473 kts | 199° |
| 2026-05-04 17:22 | 43.66263 | -85.22508 | 35610 ft | 473 kts | 199° |
| 2026-05-04 17:23 | 43.53423 | -85.26543 | 35631 ft | 473 kts | 199° |
| 2026-05-04 17:24 | 43.43815 | -85.29555 | 35633 ft | 473 kts | 199° |
| 2026-05-04 17:25 | 43.30986 | -85.33558 | 35648 ft | 474 kts | 199° |
| 2026-05-04 17:26 | 43.18100 | -85.37564 | 35650 ft | 474 kts | 199° |
| 2026-05-04 17:27 | 43.01999 | -85.42539 | 35655 ft | 475 kts | 199° |
| 2026-05-04 17:28 | 42.89152 | -85.46494 | 35519 ft | 471 kts | 198° |
| 2026-05-04 17:29 | 42.80348 | -85.51255 | 34220 ft | 443 kts | 231° |
| 2026-05-04 17:29 | 42.76383 | -85.61841 | 33283 ft | 413 kts | 261° |
| 2026-05-04 17:30 | 42.74455 | -85.73267 | 32243 ft | 410 kts | 259° |
| 2026-05-04 17:31 | 42.73097 | -85.80728 | 31634 ft | 405 kts | 259° |
| 2026-05-04 17:31 | 42.71077 | -85.91823 | 30690 ft | 400 kts | 259° |
| 2026-05-04 17:32 | 42.69753 | -85.99083 | 30056 ft | 397 kts | 259° |
| 2026-05-04 17:33 | 42.67764 | -86.09918 | 29238 ft | 389 kts | 258° |
| 2026-05-04 17:33 | 42.67107 | -86.13483 | 28939 ft | 387 kts | 258° |
| 2026-05-04 17:34 | 42.65158 | -86.24026 | 28089 ft | 382 kts | 258° |
| 2026-05-04 17:34 | 42.64508 | -86.27520 | 27804 ft | 380 kts | 258° |
| 2026-05-04 17:35 | 42.62582 | -86.37851 | 27008 ft | 373 kts | 258° |
| 2026-05-04 17:35 | 42.61522 | -86.43512 | 26587 ft | 369 kts | 258° |
| 2026-05-04 17:35 | 42.60890 | -86.46882 | 26210 ft | 367 kts | 258° |
| 2026-05-04 17:36 | 42.60260 | -86.50241 | 25747 ft | 364 kts | 258° |
| 2026-05-04 17:36 | 42.59636 | -86.53563 | 25291 ft | 361 kts | 258° |
| 2026-05-04 17:36 | 42.59023 | -86.56824 | 24832 ft | 359 kts | 258° |
| 2026-05-04 17:36 | 42.58405 | -86.60101 | 24373 ft | 356 kts | 257° |
| 2026-05-04 17:37 | 42.57792 | -86.63349 | 23918 ft | 353 kts | 257° |
| 2026-05-04 17:37 | 42.57181 | -86.66577 | 23468 ft | 351 kts | 257° |
| 2026-05-04 17:37 | 42.56575 | -86.69772 | 23025 ft | 349 kts | 257° |
| 2026-05-04 17:37 | 42.55953 | -86.72944 | 22575 ft | 347 kts | 255° |
| 2026-05-04 17:38 | 42.55184 | -86.76040 | 22131 ft | 346 kts | 252° |
| 2026-05-04 17:38 | 42.54344 | -86.79084 | 21686 ft | 343 kts | 251° |
| 2026-05-04 17:38 | 42.53497 | -86.82098 | 21261 ft | 341 kts | 251° |
| 2026-05-04 17:38 | 42.52660 | -86.85098 | 20821 ft | 339 kts | 251° |
| 2026-05-04 17:39 | 42.51019 | -86.91060 | 19928 ft | 336 kts | 251° |
| 2026-05-04 17:39 | 42.50211 | -86.94017 | 19500 ft | 333 kts | 252° |
| 2026-05-04 17:39 | 42.49412 | -86.96951 | 19067 ft | 331 kts | 251° |
| 2026-05-04 17:40 | 42.48618 | -86.99867 | 18626 ft | 329 kts | 251° |
| 2026-05-04 17:40 | 42.47828 | -87.02770 | 18200 ft | 327 kts | 251° |
| 2026-05-04 17:40 | 42.47044 | -87.05648 | 17769 ft | 325 kts | 251° |
| 2026-05-04 17:40 | 42.46261 | -87.08509 | 17341 ft | 322 kts | 251° |
| 2026-05-04 17:41 | 42.45484 | -87.11343 | 16913 ft | 320 kts | 251° |
| 2026-05-04 17:41 | 42.44711 | -87.14163 | 16488 ft | 318 kts | 251° |
| 2026-05-04 17:41 | 42.43944 | -87.16959 | 16067 ft | 316 kts | 251° |
| 2026-05-04 17:41 | 42.43183 | -87.19734 | 15650 ft | 313 kts | 251° |
| 2026-05-04 17:42 | 42.42428 | -87.22486 | 15238 ft | 311 kts | 251° |
| 2026-05-04 17:42 | 42.41678 | -87.25217 | 14825 ft | 308 kts | 251° |
| 2026-05-04 17:42 | 42.40931 | -87.27929 | 14424 ft | 306 kts | 251° |
| 2026-05-04 17:42 | 42.40191 | -87.30612 | 14022 ft | 303 kts | 250° |
| 2026-05-04 17:43 | 42.39456 | -87.33272 | 13612 ft | 300 kts | 250° |
| 2026-05-04 17:43 | 42.38728 | -87.35901 | 13221 ft | 297 kts | 250° |
| 2026-05-04 17:43 | 42.38007 | -87.38513 | 12837 ft | 295 kts | 250° |
| 2026-05-04 17:43 | 42.37302 | -87.41062 | 12452 ft | 292 kts | 250° |
| 2026-05-04 17:44 | 42.36583 | -87.43656 | 12063 ft | 289 kts | 250° |
| 2026-05-04 17:44 | 42.35889 | -87.46159 | 11686 ft | 287 kts | 250° |
| 2026-05-04 17:44 | 42.35183 | -87.48700 | 11307 ft | 284 kts | 250° |
| 2026-05-04 17:44 | 42.34500 | -87.51156 | 10929 ft | 281 kts | 250° |
| 2026-05-04 17:45 | 42.33614 | -87.53458 | 10559 ft | 277 kts | 233° |
| 2026-05-04 17:45 | 42.32232 | -87.55239 | 10427 ft | 273 kts | 221° |
| 2026-05-04 17:45 | 42.30756 | -87.56780 | 10290 ft | 263 kts | 220° |
| 2026-05-04 17:45 | 42.29342 | -87.58256 | 10163 ft | 251 kts | 221° |
| 2026-05-04 17:46 | 42.27971 | -87.59700 | 10024 ft | 253 kts | 221° |
| 2026-05-04 17:46 | 42.26444 | -87.60911 | 9591 ft | 263 kts | 198° |
| 2026-05-04 17:46 | 42.24596 | -87.60972 | 9152 ft | 268 kts | 180° |
| 2026-05-04 17:46 | 42.22768 | -87.60746 | 8674 ft | 259 kts | 180° |
| 2026-05-04 17:47 | 42.21019 | -87.60544 | 8351 ft | 245 kts | 181° |
| 2026-05-04 17:47 | 42.19315 | -87.60357 | 8098 ft | 252 kts | 181° |
| 2026-05-04 17:47 | 42.17493 | -87.60171 | 7840 ft | 271 kts | 180° |
| 2026-05-04 17:47 | 42.16230 | -87.60040 | 7631 ft | 275 kts | 180° |
| 2026-05-04 17:48 | 42.15932 | -87.60008 | 7580 ft | 274 kts | 180° |
| 2026-05-04 17:48 | 42.14215 | -87.59824 | 7284 ft | 271 kts | 180° |
| 2026-05-04 17:48 | 42.12972 | -87.59691 | 7067 ft | 268 kts | 180° |
| 2026-05-04 17:48 | 42.10539 | -87.59432 | 6674 ft | 261 kts | 181° |
| 2026-05-04 17:49 | 42.08744 | -87.59246 | 6371 ft | 256 kts | 180° |
| 2026-05-04 17:49 | 42.06957 | -87.59061 | 6092 ft | 256 kts | 180° |
| 2026-05-04 17:49 | 42.05206 | -87.58885 | 5818 ft | 255 kts | 180° |
| 2026-05-04 17:49 | 42.03440 | -87.58707 | 5543 ft | 253 kts | 180° |
| 2026-05-04 17:50 | 42.01705 | -87.58643 | 5226 ft | 245 kts | 193° |
| 2026-05-04 17:50 | 42.00210 | -87.59578 | 5110 ft | 235 kts | 225° |
| 2026-05-04 17:50 | 41.99365 | -87.61396 | 4867 ft | 228 kts | 251° |
| 2026-05-04 17:50 | 41.99079 | -87.63440 | 4457 ft | 220 kts | 259° |
| 2026-05-04 17:51 | 41.98883 | -87.65415 | 4133 ft | 206 kts | 262° |
| 2026-05-04 17:51 | 41.98830 | -87.67291 | 3878 ft | 196 kts | 265° |
| 2026-05-04 17:51 | 41.98829 | -87.69078 | 3561 ft | 185 kts | 265° |
| 2026-05-04 17:51 | 41.98831 | -87.70778 | 3354 ft | 180 kts | 265° |
| 2026-05-04 17:52 | 41.98832 | -87.72448 | 3049 ft | 175 kts | 265° |
| 2026-05-04 17:52 | 41.98830 | -87.74079 | 2836 ft | 174 kts | 264° |
| 2026-05-04 17:52 | 41.98829 | -87.75279 | 2655 ft | 173 kts | 264° |
| 2026-05-04 17:52 | 41.98829 | -87.76370 | 2499 ft | 175 kts | 266° |
| 2026-05-04 17:53 | 41.98831 | -87.77986 | 2328 ft | 172 kts | 266° |
| 2026-05-04 17:53 | 41.98830 | -87.79606 | 2043 ft | 170 kts | 266° |
| 2026-05-04 17:53 | 41.98831 | -87.81189 | 1802 ft | 164 kts | 267° |
| 2026-05-04 17:53 | 41.98838 | -87.82646 | 1568 ft | 152 kts | 266° |
| 2026-05-04 17:54 | 41.98828 | -87.84041 | 1404 ft | 150 kts | 266° |
| 2026-05-04 17:54 | 41.98832 | -87.85448 | 1218 ft | 150 kts | 267° |
| 2026-05-04 17:54 | 41.98830 | -87.86842 | 1040 ft | 150 kts | 266° |
| 2026-05-04 17:54 | 41.98831 | -87.88242 | 826 ft | 147 kts | 268° |
| 2026-05-04 17:55 | 41.98831 | -87.89624 | 675 ft | 146 kts | 267° |
| 2026-05-04 17:55 | 41.98830 | -87.90838 | 674 ft | 109 kts | 270° |
| 2026-05-04 17:55 | 41.98831 | -87.91609 | 673 ft | 56 kts | 270° |
| 2026-05-04 17:55 | 41.98830 | -87.92056 | 675 ft | 42 kts | 270° |
| 2026-05-04 17:56 | 41.98830 | -87.92320 | 675 ft | 16 kts | 270° |
| 2026-05-04 17:56 | 41.98888 | -87.92404 | 676 ft | 14 kts | 353° |
| 2026-05-04 17:56 | 41.98981 | -87.92373 | 674 ft | 15 kts | 50° |
| 2026-05-04 17:56 | 41.98993 | -87.92237 | 674 ft | 15 kts | 90° |
| 2026-05-04 17:57 | 41.98994 | -87.92098 | 673 ft | 15 kts | 90° |
| 2026-05-04 17:57 | 41.98994 | -87.91959 | 673 ft | 15 kts | 90° |
| 2026-05-04 17:57 | 41.98994 | -87.91813 | 673 ft | 17 kts | 90° |
| 2026-05-04 17:57 | 41.98993 | -87.91654 | 673 ft | 17 kts | 90° |
| 2026-05-04 17:58 | 41.98993 | -87.91494 | 673 ft | 17 kts | 90° |
| 2026-05-04 17:58 | 41.98993 | -87.91326 | 673 ft | 20 kts | 90° |
| 2026-05-04 17:58 | 41.98993 | -87.91122 | 673 ft | 24 kts | 90° |
| 2026-05-04 17:58 | 41.98994 | -87.90890 | 674 ft | 25 kts | 90° |
| 2026-05-04 17:59 | 41.98994 | -87.90658 | 674 ft | 25 kts | 90° |
| 2026-05-04 17:59 | 41.98993 | -87.90426 | 676 ft | 25 kts | 90° |
| 2026-05-04 17:59 | 41.99030 | -87.90046 | 673 ft | 19 kts | 19° |
| 2026-05-04 18:00 | 41.99161 | -87.90041 | 673 ft | 19 kts | 359° |
| 2026-05-04 18:00 | 41.99277 | -87.89972 | 673 ft | 19 kts | 40° |
| 2026-05-04 18:00 | 41.99378 | -87.89859 | 674 ft | 19 kts | 39° |
| 2026-05-04 18:00 | 41.99478 | -87.89748 | 674 ft | 19 kts | 41° |
| 2026-05-04 18:01 | 41.99509 | -87.89600 | 674 ft | 16 kts | 91° |
| 2026-05-04 18:01 | 41.99508 | -87.89445 | 673 ft | 16 kts | 90° |
| 2026-05-04 18:01 | 41.99508 | -87.89309 | 673 ft | 14 kts | 90° |
| 2026-05-04 18:02 | 41.99505 | -87.89065 | 673 ft | 10 kts | 106° |
| 2026-05-04 18:02 | 41.99456 | -87.89044 | 674 ft | 8 kts | 181° |
| 2026-05-04 18:02 | 41.99423 | -87.89044 | 674 ft | 1 kts | 180° |
| 2026-05-04 18:02 | 41.99422 | -87.89044 | 674 ft | 0 kts | 180° |